Time;durP1;ratioP1;P1;durP2;ratioP2;P2;SDS_P1;SDS_P2;PMS_P1;PMS_P2;Temp;Humidity;BMP_temperature;BMP_pressure;BME280_temperature;BME280_humidity;BME280_pressure;Samples;Min_cycle;Max_cycle;Signal;HPM_P1;HPM_P2
2022/12/02 00:00:41;;;;;;;8.30;4.28;;;;;;;;;;1768249;81;21064;-63
2022/12/02 00:03:08;;;;;;;9.98;5.15;;;;;;;;;;1789941;79;21088;-63
2022/12/02 00:05:34;;;;;;;10.25;4.85;;;;;;;;;;1772621;79;21051;-63
2022/12/02 00:08:11;;;;;;;8.70;4.37;;;;;;;;;;1808984;79;20977;-63
2022/12/02 00:10:38;;;;;;;10.38;4.90;;;;;;;;;;1786808;80;21028;-63
2022/12/02 00:13:06;;;;;;;9.43;5.10;;;;;;;;;;1759823;80;21072;-63
2022/12/02 00:15:35;;;;;;;9.10;4.60;;;;;;;;;;1753913;80;21052;-63
2022/12/02 00:18:01;;;;;;;11.18;5.90;;;;;;;;;;1753662;82;21028;-64
2022/12/02 00:20:28;;;;;;;7.78;5.08;;;;;;;;;;1770674;81;21560;-64
2022/12/02 00:22:54;;;;;;;9.58;4.83;;;;;;;;;;1776251;79;21012;-63
2022/12/02 00:25:20;;;;;;;8.68;4.83;;;;;;;;;;1801905;79;21020;-63
2022/12/02 00:27:46;;;;;;;7.17;3.98;;;;;;;;;;1802242;79;21079;-63
2022/12/02 00:30:15;;;;;;;10.98;4.80;;;;;;;;;;1798753;79;21049;-63
2022/12/02 00:32:42;;;;;;;10.60;4.65;;;;;;;;;;1742701;81;21071;-63
2022/12/02 00:35:09;;;;;;;7.55;3.98;;;;;;;;;;1770496;81;21085;-63
2022/12/02 00:37:35;;;;;;;7.78;3.45;;;;;;;;;;1770276;81;21564;-63
2022/12/02 00:40:02;;;;;;;6.22;3.47;;;;;;;;;;1753591;82;21081;-63
2022/12/02 00:42:29;;;;;;;7.92;4.10;;;;;;;;;;1770608;81;21070;-63
2022/12/02 00:47:40;;;;;;;5.78;3.50;;;;;;;;;;1770338;81;21118;-63
2022/12/02 00:50:07;;;;;;;8.38;3.98;;;;;;;;;;1788333;79;20972;-63
2022/12/02 00:52:33;;;;;;;5.72;3.35;;;;;;;;;;1793025;79;21028;-63
2022/12/02 00:54:59;;;;;;;7.83;3.62;;;;;;;;;;1799767;79;20996;-63
2022/12/02 00:57:26;;;;;;;8.68;3.50;;;;;;;;;;1777171;79;21035;-64
2022/12/02 00:59:53;;;;;;;7.45;3.15;;;;;;;;;;1760709;81;21042;-64
2022/12/02 01:02:19;;;;;;;6.17;3.25;;;;;;;;;;1795733;80;21482;-64
2022/12/02 01:04:46;;;;;;;6.05;3.42;;;;;;;;;;1754853;80;21065;-64
2022/12/02 01:07:13;;;;;;;8.28;3.62;;;;;;;;;;1757310;80;21019;-64
2022/12/02 01:09:40;;;;;;;6.40;3.52;;;;;;;;;;1773326;80;20977;-64
2022/12/02 01:12:07;;;;;;;7.20;4.00;;;;;;;;;;1786547;80;20996;-64
2022/12/02 01:14:34;;;;;;;6.30;3.12;;;;;;;;;;1758391;80;21180;-64
2022/12/02 01:17:01;;;;;;;7.30;4.03;;;;;;;;;;1799859;79;20988;-64
2022/12/02 01:19:27;;;;;;;5.22;2.58;;;;;;;;;;1797478;79;21008;-64
2022/12/02 01:21:54;;;;;;;7.37;3.77;;;;;;;;;;1772977;80;21021;-64
2022/12/02 01:24:20;;;;;;;8.53;2.87;;;;;;;;;;1810099;79;21024;-64
2022/12/02 01:26:46;;;;;;;5.90;3.30;;;;;;;;;;1818399;79;21095;-64
2022/12/02 01:29:12;;;;;;;7.53;3.47;;;;;;;;;;1799984;79;21004;-64
2022/12/02 01:31:38;;;;;;;7.37;3.40;;;;;;;;;;1760448;80;21522;-64
2022/12/02 01:34:06;;;;;;;6.62;3.62;;;;;;;;;;1769768;80;21044;-64
2022/12/02 01:36:32;;;;;;;6.10;3.42;;;;;;;;;;1783686;80;20972;-64
2022/12/02 01:38:59;;;;;;;5.47;3.45;;;;;;;;;;1761062;81;21563;-64
2022/12/02 01:41:25;;;;;;;4.70;3.08;;;;;;;;;;1761940;80;21064;-64
2022/12/02 01:43:51;;;;;;;9.33;3.45;;;;;;;;;;1762181;80;21072;-64
2022/12/02 01:46:17;;;;;;;6.95;3.50;;;;;;;;;;1790137;79;21024;-64
2022/12/02 01:48:43;;;;;;;8.10;2.98;;;;;;;;;;1790627;80;21008;-64
2022/12/02 01:51:10;;;;;;;4.10;3.10;;;;;;;;;;1791640;79;21492;-64
2022/12/02 01:53:36;;;;;;;8.00;3.50;;;;;;;;;;1813130;79;21028;-64
2022/12/02 01:56:03;;;;;;;6.30;3.27;;;;;;;;;;1803866;79;21075;-64
2022/12/02 01:58:31;;;;;;;7.12;3.55;;;;;;;;;;1821138;79;21622;-64
2022/12/02 02:03:41;;;;;;;6.72;3.33;;;;;;;;;;1735143;77;80045;-63
2022/12/02 02:06:07;;;;;;;6.33;3.45;;;;;;;;;;1752943;82;21014;-63
2022/12/02 02:08:34;;;;;;;7.45;3.12;;;;;;;;;;1744498;82;21004;-63
2022/12/02 02:11:00;;;;;;;4.80;3.33;;;;;;;;;;1761047;81;21012;-63
2022/12/02 02:13:26;;;;;;;7.78;3.72;;;;;;;;;;1790530;80;21011;-63
2022/12/02 02:15:52;;;;;;;6.78;3.67;;;;;;;;;;1788600;80;21531;-63
2022/12/02 02:18:19;;;;;;;4.72;3.37;;;;;;;;;;1791468;80;21059;-63
2022/12/02 02:20:46;;;;;;;5.80;3.35;;;;;;;;;;1756335;81;21009;-63
2022/12/02 02:23:19;;;;;;;5.75;3.47;;;;;;;;;;1753392;81;21063;-63
2022/12/02 02:25:47;;;;;;;6.10;3.25;;;;;;;;;;1761458;81;21048;-63
2022/12/02 02:28:14;;;;;;;6.40;3.15;;;;;;;;;;1792956;80;21071;-63
2022/12/02 05:29:52;;;;;;;7.05;4.30;;;;;;;;;;1763429;80;28091;-64
2022/12/02 05:32:18;;;;;;;6.35;3.72;;;;;;;;;;1784444;79;21100;-64
2022/12/02 05:34:44;;;;;;;8.28;4.37;;;;;;;;;;1788823;79;21081;-65
2022/12/02 05:37:11;;;;;;;7.17;3.92;;;;;;;;;;1788106;79;21510;-64
2022/12/02 05:39:37;;;;;;;6.87;3.83;;;;;;;;;;1783530;79;21069;-64
2022/12/02 05:42:07;;;;;;;6.15;3.40;;;;;;;;;;1806275;79;20982;-64
2022/12/02 05:44:33;;;;;;;7.67;3.50;;;;;;;;;;1802330;78;21525;-65
2022/12/02 05:47:02;;;;;;;6.67;3.25;;;;;;;;;;1792379;79;21084;-64
2022/12/02 05:49:29;;;;;;;8.05;3.42;;;;;;;;;;1752522;81;21062;-65
2022/12/02 05:51:56;;;;;;;6.58;3.70;;;;;;;;;;1787989;79;21018;-64
2022/12/02 05:54:22;;;;;;;8.00;3.30;;;;;;;;;;1791252;79;21042;-66
2022/12/02 05:56:49;;;;;;;6.90;4.05;;;;;;;;;;1794161;79;21038;-63
2022/12/02 05:59:16;;;;;;;5.90;4.12;;;;;;;;;;1792960;79;21109;-64
2022/12/02 06:01:44;;;;;;;5.78;3.87;;;;;;;;;;1774375;80;21013;-63
2022/12/02 06:04:12;;;;;;;9.38;3.95;;;;;;;;;;1773132;80;21068;-64
2022/12/02 06:06:40;;;;;;;7.72;3.62;;;;;;;;;;1763339;80;20985;-63
2022/12/02 06:09:11;;;;;;;7.67;3.92;;;;;;;;;;1753177;79;21028;-65
2022/12/02 06:11:37;;;;;;;9.08;4.42;;;;;;;;;;1749634;80;21060;-65
2022/12/02 06:14:11;;;;;;;6.87;3.52;;;;;;;;;;1777125;80;21079;-64
2022/12/02 06:16:38;;;;;;;8.00;4.12;;;;;;;;;;1757031;80;21567;-64
2022/12/02 06:19:06;;;;;;;10.55;4.10;;;;;;;;;;1751371;80;21060;-64
2022/12/02 06:21:32;;;;;;;10.55;4.05;;;;;;;;;;1742924;81;21103;-63
2022/12/02 06:23:58;;;;;;;7.05;4.08;;;;;;;;;;1743716;80;21065;-63
2022/12/02 06:26:24;;;;;;;6.80;3.75;;;;;;;;;;1742255;82;21040;-64
2022/12/02 06:29:00;;;;;;;7.10;3.87;;;;;;;;;;1748265;81;22469;-64
2022/12/02 06:31:30;;;;;;;9.05;4.22;;;;;;;;;;1766570;81;21550;-64
2022/12/02 06:33:57;;;;;;;6.67;3.40;;;;;;;;;;1768896;80;21055;-65
2022/12/02 06:36:28;;;;;;;11.28;4.17;;;;;;;;;;1764262;81;21054;-65
2022/12/02 06:38:58;;;;;;;7.78;4.03;;;;;;;;;;1768698;79;22094;-64
2022/12/02 06:53:28;;;;;;;10.18;5.35;;;;;;;;;;1803305;77;22157;-66
2022/12/02 06:56:04;;;;;;;9.20;5.05;;;;;;;;;;1782018;79;21192;-65
2022/12/02 06:58:32;;;;;;;11.43;5.65;;;;;;;;;;1781764;80;21055;-65
2022/12/02 07:01:07;;;;;;;7.08;4.22;;;;;;;;;;1758621;81;21056;-65
2022/12/02 08:03:26;;;;;;;8.60;5.50;;;;;;;;;;1837851;77;27973;-66
2022/12/02 08:05:53;;;;;;;9.73;5.55;;;;;;;;;;1806466;78;21051;-66
2022/12/02 08:08:19;;;;;;;11.20;6.20;;;;;;;;;;1797093;78;21000;-65
2022/12/02 08:10:45;;;;;;;10.93;5.08;;;;;;;;;;1786818;78;21025;-65
2022/12/02 08:13:11;;;;;;;9.13;5.05;;;;;;;;;;1795942;78;21044;-65
2022/12/02 08:15:37;;;;;;;9.18;5.33;;;;;;;;;;1783512;78;21007;-65
2022/12/02 08:18:04;;;;;;;9.20;4.55;;;;;;;;;;1800917;78;22266;-66
2022/12/02 08:20:31;;;;;;;7.78;4.42;;;;;;;;;;1795104;78;21561;-66
2022/12/02 08:22:58;;;;;;;10.50;5.30;;;;;;;;;;1802607;78;21028;-65
2022/12/02 08:25:24;;;;;;;9.28;5.00;;;;;;;;;;1810862;78;20978;-66
2022/12/02 08:27:50;;;;;;;13.10;6.05;;;;;;;;;;1797039;80;20996;-66
2022/12/02 08:30:17;;;;;;;9.78;4.35;;;;;;;;;;1764194;80;21003;-67
2022/12/02 08:32:44;;;;;;;12.65;5.53;;;;;;;;;;1781654;79;21010;-66
2022/12/02 08:35:11;;;;;;;11.78;5.85;;;;;;;;;;1781881;80;21530;-66
2022/12/02 08:37:44;;;;;;;8.23;4.60;;;;;;;;;;1769520;79;21039;-66
2022/12/02 08:40:11;;;;;;;12.78;5.55;;;;;;;;;;1769285;80;21015;-66
2022/12/02 08:42:38;;;;;;;9.65;5.03;;;;;;;;;;1771591;79;21426;-67
2022/12/02 08:45:06;;;;;;;11.55;4.60;;;;;;;;;;1767970;80;21094;-65
2022/12/02 08:47:33;;;;;;;9.55;4.65;;;;;;;;;;1705632;83;21139;-66
2022/12/02 08:49:59;;;;;;;10.82;4.40;;;;;;;;;;1709819;83;21565;-66
2022/12/02 08:52:25;;;;;;;8.83;4.80;;;;;;;;;;1735023;81;21059;-65
2022/12/02 08:54:52;;;;;;;8.35;4.67;;;;;;;;;;1703865;84;21103;-66
2022/12/02 08:57:18;;;;;;;12.05;5.20;;;;;;;;;;1703968;82;20996;-66
2022/12/02 08:59:44;;;;;;;8.00;5.12;;;;;;;;;;1698109;84;21527;-67
2022/12/02 09:02:11;;;;;;;9.60;5.12;;;;;;;;;;1721609;82;21634;-67
2022/12/02 09:04:37;;;;;;;9.80;5.67;;;;;;;;;;1731349;82;21084;-67
2022/12/02 09:07:03;;;;;;;9.10;4.85;;;;;;;;;;1735379;82;21052;-66
2022/12/02 09:09:30;;;;;;;10.90;5.42;;;;;;;;;;1729980;82;21043;-66
2022/12/02 09:11:56;;;;;;;11.83;4.92;;;;;;;;;;1732684;82;21091;-66
2022/12/02 09:14:22;;;;;;;8.08;4.53;;;;;;;;;;1735163;82;21716;-67
2022/12/02 09:16:49;;;;;;;10.68;4.90;;;;;;;;;;1735540;82;21045;-66
2022/12/02 09:19:15;;;;;;;12.93;5.50;;;;;;;;;;1735531;82;21049;-66
2022/12/02 09:21:42;;;;;;;8.65;4.58;;;;;;;;;;1735230;82;21111;-66
2022/12/02 09:24:08;;;;;;;8.38;4.83;;;;;;;;;;1735001;81;21051;-67
2022/12/02 09:26:34;;;;;;;8.95;4.17;;;;;;;;;;1732812;81;21000;-68
2022/12/02 09:29:01;;;;;;;8.53;3.98;;;;;;;;;;1734543;82;21027;-67
2022/12/02 09:31:27;;;;;;;6.17;4.03;;;;;;;;;;1736087;82;21004;-68
2022/12/02 09:33:53;;;;;;;9.68;4.37;;;;;;;;;;1735995;81;22347;-68
2022/12/02 09:36:19;;;;;;;8.40;4.00;;;;;;;;;;1735997;81;21045;-69
2022/12/02 09:38:45;;;;;;;7.00;3.87;;;;;;;;;;1736650;81;21100;-69
2022/12/02 09:41:12;;;;;;;9.08;4.00;;;;;;;;;;1736917;81;21059;-69
2022/12/02 09:43:38;;;;;;;8.78;5.90;;;;;;;;;;1735443;81;21430;-67
2022/12/02 09:46:05;;;;;;;6.60;3.83;;;;;;;;;;1709028;83;21114;-67
2022/12/02 09:48:31;;;;;;;8.40;4.42;;;;;;;;;;1731594;81;21076;-68
2022/12/02 09:50:57;;;;;;;7.08;4.10;;;;;;;;;;1727853;81;21615;-68
2022/12/02 09:53:24;;;;;;;6.78;3.70;;;;;;;;;;1732664;81;21102;-69
2022/12/02 09:55:50;;;;;;;6.17;3.55;;;;;;;;;;1735952;81;21406;-70
2022/12/02 09:58:17;;;;;;;5.33;3.30;;;;;;;;;;1746611;81;21049;-68
2022/12/02 10:00:43;;;;;;;7.25;3.40;;;;;;;;;;1704215;83;21074;-66
2022/12/02 10:03:09;;;;;;;7.17;3.62;;;;;;;;;;1733809;81;21040;-66
2022/12/02 10:05:37;;;;;;;5.40;3.27;;;;;;;;;;1729685;81;21595;-66
2022/12/02 10:08:03;;;;;;;8.15;4.25;;;;;;;;;;1699843;84;20976;-67
2022/12/02 10:10:34;;;;;;;9.10;3.75;;;;;;;;;;1721077;82;21047;-67
2022/12/02 10:12:59;;;;;;;8.28;4.20;;;;;;;;;;1712725;82;21071;-67
2022/12/02 10:15:27;;;;;;;6.85;3.37;;;;;;;;;;1711130;84;21495;-67
2022/12/02 10:17:54;;;;;;;7.08;3.80;;;;;;;;;;1709029;81;21099;-67
2022/12/02 10:20:21;;;;;;;9.38;4.25;;;;;;;;;;1703841;84;21028;-65
2022/12/02 10:23:07;;;;;;;8.48;4.37;;;;;;;;;;1711487;84;21055;-67
2022/12/02 10:25:33;;;;;;;7.37;3.83;;;;;;;;;;1712599;82;21051;-65
2022/12/02 10:28:00;;;;;;;8.55;3.95;;;;;;;;;;1713754;84;21062;-65
2022/12/02 10:30:26;;;;;;;8.60;4.08;;;;;;;;;;1714159;82;21155;-65
2022/12/02 10:32:55;;;;;;;5.70;3.47;;;;;;;;;;1712337;81;21063;-66
2022/12/02 10:35:21;;;;;;;8.55;4.15;;;;;;;;;;1715636;81;21103;-66
2022/12/02 10:37:47;;;;;;;5.87;3.92;;;;;;;;;;1717050;82;21050;-68
2022/12/02 10:40:14;;;;;;;8.83;4.10;;;;;;;;;;1713449;82;21087;-67
2022/12/02 10:42:41;;;;;;;8.63;3.98;;;;;;;;;;1709422;82;21059;-68
2022/12/02 10:45:18;;;;;;;5.65;3.37;;;;;;;;;;1714104;84;21094;-68
2022/12/02 10:47:45;;;;;;;7.90;3.58;;;;;;;;;;1715296;82;21094;-66
2022/12/02 10:50:21;;;;;;;9.73;5.60;;;;;;;;;;1715766;81;21059;-67
2022/12/02 10:52:49;;;;;;;7.62;3.90;;;;;;;;;;1709736;84;21583;-66
2022/12/02 10:55:16;;;;;;;9.55;4.87;;;;;;;;;;1716144;82;21070;-66
2022/12/02 11:11:14;;;;;;;9.35;5.22;;;;;;;;;;1816257;77;28067;-67
2022/12/02 11:13:48;;;;;;;7.28;4.30;;;;;;;;;;1753502;80;21039;-67
2022/12/02 11:16:28;;;;;;;8.55;4.80;;;;;;;;;;1802533;79;21024;-67
2022/12/02 11:19:12;;;;;;;11.08;5.45;;;;;;;;;;1814352;79;21113;-65
2022/12/02 11:21:39;;;;;;;11.27;4.90;;;;;;;;;;1790685;78;21024;-66
2022/12/02 11:24:27;;;;;;;12.47;5.35;;;;;;;;;;1799015;79;21086;-66
2022/12/02 11:27:02;;;;;;;10.10;5.20;;;;;;;;;;1792503;79;21071;-66
2022/12/02 11:29:29;;;;;;;12.70;5.55;;;;;;;;;;1807356;79;21029;-66
2022/12/02 11:32:02;;;;;;;11.40;5.00;;;;;;;;;;1804246;79;20992;-66
2022/12/02 11:34:40;;;;;;;8.13;4.30;;;;;;;;;;1805118;79;21087;-64
2022/12/02 11:37:24;;;;;;;11.08;5.10;;;;;;;;;;1772804;80;20996;-66
2022/12/02 11:39:52;;;;;;;10.75;5.47;;;;;;;;;;1796073;79;20969;-68
2022/12/02 11:42:26;;;;;;;12.53;6.15;;;;;;;;;;1756476;81;21068;-66
2022/12/02 11:44:52;;;;;;;11.95;5.08;;;;;;;;;;1772462;80;21095;-66
2022/12/02 11:47:23;;;;;;;10.00;5.10;;;;;;;;;;1785043;80;21020;-66
2022/12/02 11:49:50;;;;;;;10.65;4.95;;;;;;;;;;1800663;78;21523;-67
2022/12/02 11:52:23;;;;;;;9.00;4.35;;;;;;;;;;1824420;78;21519;-67
2022/12/02 11:54:55;;;;;;;10.55;4.78;;;;;;;;;;1799069;78;21046;-68
2022/12/02 11:57:27;;;;;;;10.13;5.30;;;;;;;;;;1795784;78;21005;-68
2022/12/02 11:59:54;;;;;;;8.00;4.62;;;;;;;;;;1783114;78;21059;-67
2022/12/02 12:02:20;;;;;;;10.75;4.70;;;;;;;;;;1789748;78;21036;-68
2022/12/02 12:04:57;;;;;;;10.93;5.80;;;;;;;;;;1791842;78;21611;-67
2022/12/02 12:07:23;;;;;;;11.03;4.97;;;;;;;;;;1789816;78;21451;-67
2022/12/02 12:09:56;;;;;;;8.98;5.42;;;;;;;;;;1789373;78;21012;-67
2022/12/02 12:12:23;;;;;;;10.55;4.80;;;;;;;;;;1784173;79;21570;-67
2022/12/02 12:14:54;;;;;;;11.83;5.55;;;;;;;;;;1788606;79;21991;-66
2022/12/02 12:17:40;;;;;;;10.85;5.30;;;;;;;;;;1788756;78;20996;-66
2022/12/02 12:20:10;;;;;;;9.85;5.12;;;;;;;;;;1789010;78;22280;-65
2022/12/02 12:22:36;;;;;;;10.90;5.12;;;;;;;;;;1793495;78;21063;-67
2022/12/02 12:25:21;;;;;;;8.93;5.37;;;;;;;;;;1785839;79;21051;-66
2022/12/02 12:27:47;;;;;;;12.00;4.78;;;;;;;;;;1786272;79;21009;-66
2022/12/02 12:30:14;;;;;;;11.10;5.72;;;;;;;;;;1785337;79;22275;-66
2022/12/02 12:32:41;;;;;;;12.25;5.05;;;;;;;;;;1790493;79;20954;-66
2022/12/02 12:35:07;;;;;;;9.28;4.72;;;;;;;;;;1787591;79;21060;-67
2022/12/02 12:37:33;;;;;;;14.80;5.70;;;;;;;;;;1786040;79;21092;-67
2022/12/02 12:39:59;;;;;;;14.55;5.03;;;;;;;;;;1786729;79;21235;-68
2022/12/02 12:42:25;;;;;;;12.98;5.58;;;;;;;;;;1786325;79;21529;-67
2022/12/02 12:44:51;;;;;;;18.30;7.20;;;;;;;;;;1785002;79;21014;-67
2022/12/02 12:47:18;;;;;;;13.95;5.92;;;;;;;;;;1784904;79;21021;-66
2022/12/02 12:49:44;;;;;;;12.07;5.83;;;;;;;;;;1788104;79;22045;-66
2022/12/02 12:52:10;;;;;;;15.43;6.22;;;;;;;;;;1784316;79;21852;-67
2022/12/02 12:54:36;;;;;;;13.13;6.15;;;;;;;;;;1787417;79;21018;-67
2022/12/02 12:57:02;;;;;;;17.45;6.85;;;;;;;;;;1784805;79;21080;-67
2022/12/02 12:59:28;;;;;;;14.68;6.10;;;;;;;;;;1787902;79;21134;-66
2022/12/02 13:01:55;;;;;;;13.78;6.00;;;;;;;;;;1801733;79;21028;-66
2022/12/02 13:04:21;;;;;;;12.65;5.80;;;;;;;;;;1794355;79;21248;-65
2022/12/02 13:06:48;;;;;;;12.68;5.30;;;;;;;;;;1794866;79;21110;-65
2022/12/02 13:09:14;;;;;;;15.95;6.45;;;;;;;;;;1799966;79;21509;-66
2022/12/02 13:11:40;;;;;;;14.68;6.50;;;;;;;;;;1799009;80;21004;-65
2022/12/02 13:14:07;;;;;;;14.60;6.20;;;;;;;;;;1801127;79;22182;-65
2022/12/02 13:16:35;;;;;;;15.48;6.17;;;;;;;;;;1778423;80;21011;-64
2022/12/02 13:19:01;;;;;;;14.50;6.22;;;;;;;;;;1788071;79;21020;-65
2022/12/02 13:21:28;;;;;;;12.35;5.65;;;;;;;;;;1791332;79;21083;-65
2022/12/02 13:23:54;;;;;;;13.28;6.05;;;;;;;;;;1787993;80;21075;-65
2022/12/02 13:26:21;;;;;;;16.37;7.08;;;;;;;;;;1796104;80;21067;-65
2022/12/02 13:28:47;;;;;;;16.05;6.10;;;;;;;;;;1786735;80;21044;-64
2022/12/02 13:31:13;;;;;;;16.70;5.87;;;;;;;;;;1788395;79;21012;-64
2022/12/02 13:33:39;;;;;;;13.90;6.67;;;;;;;;;;1792917;79;21055;-67
2022/12/02 13:36:06;;;;;;;13.15;5.20;;;;;;;;;;1794623;80;21023;-66
2022/12/02 13:38:32;;;;;;;12.00;6.28;;;;;;;;;;1792154;79;21007;-65
2022/12/02 13:40:59;;;;;;;16.57;6.28;;;;;;;;;;1789502;80;21036;-66
2022/12/02 13:43:25;;;;;;;11.48;4.72;;;;;;;;;;1793182;80;21062;-65
2022/12/02 13:45:51;;;;;;;11.95;5.08;;;;;;;;;;1787107;80;21001;-66
2022/12/02 13:48:18;;;;;;;17.62;6.15;;;;;;;;;;1791783;80;21028;-66
2022/12/02 13:50:44;;;;;;;13.32;6.08;;;;;;;;;;1774851;80;21024;-66
2022/12/02 13:53:11;;;;;;;11.73;5.05;;;;;;;;;;1784351;80;21566;-66
2022/12/02 13:55:37;;;;;;;11.18;5.30;;;;;;;;;;1789441;80;21515;-68
2022/12/02 13:58:03;;;;;;;9.50;4.37;;;;;;;;;;1791750;80;20973;-67
2022/12/02 14:00:29;;;;;;;12.28;6.00;;;;;;;;;;1788379;80;21067;-67
2022/12/02 14:02:55;;;;;;;12.20;6.10;;;;;;;;;;1784872;79;21028;-67
2022/12/02 14:05:21;;;;;;;12.45;5.90;;;;;;;;;;1790055;79;21039;-67
2022/12/02 14:07:47;;;;;;;12.82;5.50;;;;;;;;;;1777981;79;21051;-71
2022/12/02 14:10:14;;;;;;;10.28;5.40;;;;;;;;;;1780587;79;21093;-64
2022/12/02 14:12:40;;;;;;;13.85;6.08;;;;;;;;;;1777885;79;21020;-68
2022/12/02 14:15:07;;;;;;;13.85;5.87;;;;;;;;;;1780042;79;21218;-67
2022/12/02 14:17:34;;;;;;;11.85;5.28;;;;;;;;;;1780070;79;21059;-67
2022/12/02 14:20:00;;;;;;;11.53;5.28;;;;;;;;;;1785920;79;20999;-67
2022/12/02 14:22:26;;;;;;;12.10;5.20;;;;;;;;;;1778681;79;21065;-67
2022/12/02 14:24:52;;;;;;;10.78;5.45;;;;;;;;;;1784233;79;21050;-67
2022/12/02 14:27:19;;;;;;;13.93;5.60;;;;;;;;;;1788973;80;20996;-67
2022/12/02 14:29:45;;;;;;;11.18;4.78;;;;;;;;;;1784841;79;20993;-68
2022/12/02 14:32:11;;;;;;;10.05;4.92;;;;;;;;;;1780723;79;21022;-67
2022/12/02 14:34:37;;;;;;;9.60;5.50;;;;;;;;;;1779336;79;21520;-67
2022/12/02 14:37:03;;;;;;;9.35;4.55;;;;;;;;;;1780873;79;20961;-68
2022/12/02 14:39:29;;;;;;;11.28;4.92;;;;;;;;;;1780278;79;21069;-67
2022/12/02 14:41:56;;;;;;;14.50;5.62;;;;;;;;;;1779179;79;21036;-68
2022/12/02 14:57:38;;;;;;;12.43;5.78;;;;;;;;;;1815603;79;28183;-64
2022/12/02 15:00:05;;;;;;;11.75;6.50;;;;;;;;;;1761200;81;21098;-65
2022/12/02 15:02:32;;;;;;;11.03;5.78;;;;;;;;;;1755273;80;21566;-66
2022/12/02 15:04:58;;;;;;;11.90;5.53;;;;;;;;;;1736610;80;21023;-65
2022/12/02 15:07:24;;;;;;;9.00;6.08;;;;;;;;;;1760983;80;21523;-65
2022/12/02 15:09:50;;;;;;;10.48;5.65;;;;;;;;;;1755436;81;21023;-67
2022/12/02 15:12:16;;;;;;;12.90;6.92;;;;;;;;;;1739956;81;21036;-65
2022/12/02 15:14:43;;;;;;;12.65;7.00;;;;;;;;;;1753774;80;21031;-65
2022/12/02 15:17:12;;;;;;;10.70;5.85;;;;;;;;;;1737972;80;21092;-66
2022/12/02 15:19:37;;;;;;;9.63;6.05;;;;;;;;;;1699775;83;21016;-64
2022/12/02 15:22:03;;;;;;;11.95;5.90;;;;;;;;;;1752278;80;21586;-64
2022/12/02 15:24:30;;;;;;;7.65;4.17;;;;;;;;;;1749380;81;21047;-65
2022/12/02 15:26:56;;;;;;;8.98;4.92;;;;;;;;;;1750540;81;21606;-64
2022/12/02 15:29:22;;;;;;;9.70;4.85;;;;;;;;;;1756818;81;21074;-64
2022/12/02 15:31:48;;;;;;;8.05;4.25;;;;;;;;;;1758830;80;21043;-67
2022/12/02 15:34:14;;;;;;;10.98;5.12;;;;;;;;;;1759351;80;21031;-66
2022/12/02 15:36:40;;;;;;;9.35;5.37;;;;;;;;;;1755450;80;21118;-65
2022/12/02 15:39:07;;;;;;;9.15;5.03;;;;;;;;;;1757428;80;20977;-65
2022/12/02 15:41:33;;;;;;;9.23;4.70;;;;;;;;;;1729159;81;21010;-65
2022/12/02 15:44:00;;;;;;;11.12;5.53;;;;;;;;;;1734792;81;21058;-66
2022/12/02 15:46:27;;;;;;;9.68;5.08;;;;;;;;;;1755674;81;21048;-68
2022/12/02 15:48:54;;;;;;;11.75;5.33;;;;;;;;;;1745864;80;21031;-66
2022/12/02 15:54:09;;;;;;;11.43;6.28;;;;;;;;;;1730952;80;21467;-63
2022/12/02 16:02:22;;;;;;;9.98;5.40;;;;;;;;;;1704946;80;21101;-65
2022/12/02 16:04:49;;;;;;;14.87;7.47;;;;;;;;;;1712064;83;21030;-65
2022/12/02 16:07:15;;;;;;;12.95;6.08;;;;;;;;;;1715416;83;21570;-66
2022/12/02 16:09:41;;;;;;;12.07;6.17;;;;;;;;;;1715716;83;21013;-66
2022/12/02 16:12:07;;;;;;;14.40;6.20;;;;;;;;;;1715442;82;22126;-66
2022/12/02 16:14:34;;;;;;;8.60;5.50;;;;;;;;;;1714752;82;21041;-66
2022/12/02 16:17:00;;;;;;;13.20;6.05;;;;;;;;;;1714066;83;21055;-67
2022/12/02 16:19:27;;;;;;;10.35;6.08;;;;;;;;;;1715712;83;21041;-67
2022/12/02 16:21:53;;;;;;;14.53;6.42;;;;;;;;;;1713924;83;21076;-68
2022/12/02 16:24:19;;;;;;;14.73;6.20;;;;;;;;;;1710821;83;21109;-67
2022/12/02 16:38:10;;;;;;;15.30;8.25;;;;;;;;;;1810440;77;22138;-66
2022/12/02 16:40:37;;;;;;;15.55;7.70;;;;;;;;;;1781986;79;21048;-66
2022/12/02 16:43:04;;;;;;;14.55;7.25;;;;;;;;;;1781307;79;21083;-67
2022/12/02 16:45:31;;;;;;;15.50;7.28;;;;;;;;;;1782257;79;21009;-68
2022/12/02 16:47:57;;;;;;;15.28;8.58;;;;;;;;;;1782381;79;21071;-68
2022/12/02 16:50:23;;;;;;;17.42;7.75;;;;;;;;;;1782429;79;21627;-68
2022/12/02 16:52:49;;;;;;;13.85;7.60;;;;;;;;;;1783177;79;21046;-69
2022/12/02 16:55:16;;;;;;;12.07;6.97;;;;;;;;;;1780188;79;21085;-68
2022/12/02 16:57:42;;;;;;;15.13;7.55;;;;;;;;;;1782815;79;21079;-68
2022/12/02 17:00:08;;;;;;;12.98;7.15;;;;;;;;;;1777003;79;21013;-68
2022/12/02 17:02:35;;;;;;;13.98;7.12;;;;;;;;;;1783378;79;21063;-67
2022/12/02 17:05:01;;;;;;;19.98;8.38;;;;;;;;;;1780756;79;21075;-67
2022/12/02 17:07:27;;;;;;;14.35;7.28;;;;;;;;;;1780613;79;21062;-68
2022/12/02 17:09:54;;;;;;;14.10;7.05;;;;;;;;;;1779368;79;21015;-67
2022/12/02 17:12:20;;;;;;;15.70;7.28;;;;;;;;;;1783545;79;21060;-67
2022/12/02 17:14:46;;;;;;;12.50;6.78;;;;;;;;;;1779217;79;22216;-67
2022/12/02 17:17:13;;;;;;;14.35;7.33;;;;;;;;;;1778422;79;21121;-68
2022/12/02 17:19:39;;;;;;;13.70;6.75;;;;;;;;;;1781956;79;21552;-67
2022/12/02 17:22:07;;;;;;;17.35;11.35;;;;;;;;;;1782205;79;21069;-67
2022/12/02 17:24:33;;;;;;;12.40;7.20;;;;;;;;;;1780719;79;21083;-68
2022/12/02 17:26:59;;;;;;;15.25;7.08;;;;;;;;;;1780216;79;21096;-67
2022/12/02 17:29:26;;;;;;;15.80;7.60;;;;;;;;;;1747590;81;21044;-68
2022/12/02 17:31:52;;;;;;;11.65;6.25;;;;;;;;;;1742821;81;21036;-67
2022/12/02 17:34:19;;;;;;;12.20;6.50;;;;;;;;;;1745005;80;21732;-67
2022/12/02 17:36:46;;;;;;;18.90;9.75;;;;;;;;;;1743626;81;21041;-67
2022/12/02 17:39:15;;;;;;;13.15;6.87;;;;;;;;;;1738209;82;21036;-67
2022/12/02 17:41:41;;;;;;;10.38;5.70;;;;;;;;;;1738073;82;21049;-67
2022/12/02 17:44:07;;;;;;;13.10;6.92;;;;;;;;;;1738246;82;21027;-65
2022/12/02 17:46:34;;;;;;;15.98;8.38;;;;;;;;;;1739245;82;22114;-67
2022/12/02 17:49:00;;;;;;;14.83;6.55;;;;;;;;;;1738555;80;21001;-67
2022/12/02 17:51:26;;;;;;;11.57;6.35;;;;;;;;;;1739687;82;21098;-67
2022/12/02 17:53:52;;;;;;;14.43;6.60;;;;;;;;;;1736228;82;21056;-68
2022/12/02 17:56:19;;;;;;;10.82;5.28;;;;;;;;;;1735526;82;21471;-68
2022/12/02 17:58:45;;;;;;;12.98;6.53;;;;;;;;;;1736004;82;21026;-68
2022/12/02 18:01:11;;;;;;;12.23;5.83;;;;;;;;;;1734189;82;21550;-68
2022/12/02 18:03:38;;;;;;;10.90;6.10;;;;;;;;;;1738012;82;21107;-67
2022/12/02 18:06:05;;;;;;;11.55;6.20;;;;;;;;;;1736175;82;21071;-68
2022/12/02 18:08:31;;;;;;;12.23;5.97;;;;;;;;;;1734848;82;21048;-68
2022/12/02 18:10:57;;;;;;;13.30;6.67;;;;;;;;;;1735260;82;21067;-68
2022/12/02 18:13:23;;;;;;;14.87;7.03;;;;;;;;;;1735804;82;21040;-68
2022/12/02 18:15:50;;;;;;;12.43;5.83;;;;;;;;;;1735380;82;21076;-69
2022/12/02 18:18:16;;;;;;;18.95;9.05;;;;;;;;;;1735188;82;21064;-69
2022/12/02 18:20:42;;;;;;;14.38;6.58;;;;;;;;;;1736133;82;21112;-70
2022/12/02 18:35:01;;;;;;;13.68;7.83;;;;;;;;;;1788238;79;28210;-67
2022/12/02 18:37:28;;;;;;;13.05;7.10;;;;;;;;;;1745809;80;21052;-67
2022/12/02 18:39:54;;;;;;;15.18;7.33;;;;;;;;;;1747148;80;21100;-68
2022/12/02 18:42:20;;;;;;;12.30;6.75;;;;;;;;;;1771001;80;21063;-68
2022/12/02 18:44:47;;;;;;;13.68;7.65;;;;;;;;;;1769712;80;21533;-69
2022/12/02 18:47:13;;;;;;;12.50;7.40;;;;;;;;;;1769274;80;21593;-69
2022/12/02 18:49:39;;;;;;;12.75;7.12;;;;;;;;;;1775376;80;21017;-68
2022/12/02 18:52:05;;;;;;;11.22;6.90;;;;;;;;;;1774499;79;21030;-68
2022/12/02 18:54:31;;;;;;;13.35;7.78;;;;;;;;;;1762843;78;20974;-69
2022/12/02 18:56:57;;;;;;;12.30;6.83;;;;;;;;;;1776558;79;21032;-68
2022/12/02 18:59:24;;;;;;;13.20;7.30;;;;;;;;;;1757442;79;21111;-70
2022/12/02 19:01:50;;;;;;;12.78;7.45;;;;;;;;;;1770462;79;21079;-68
2022/12/02 19:04:16;;;;;;;12.90;7.00;;;;;;;;;;1776938;80;21060;-68
2022/12/02 19:06:44;;;;;;;15.18;6.90;;;;;;;;;;1771624;80;21083;-68
2022/12/02 19:09:10;;;;;;;12.30;7.25;;;;;;;;;;1765174;80;21058;-69
2022/12/02 19:11:36;;;;;;;8.55;5.97;;;;;;;;;;1761532;80;21094;-67
2022/12/02 19:14:02;;;;;;;10.65;6.67;;;;;;;;;;1758216;80;21367;-71
2022/12/02 19:16:29;;;;;;;12.05;6.10;;;;;;;;;;1757705;79;21063;-68
2022/12/02 19:18:56;;;;;;;13.18;6.85;;;;;;;;;;1761358;79;21167;-69
2022/12/02 19:21:22;;;;;;;12.40;6.20;;;;;;;;;;1774231;79;21570;-66
2022/12/02 19:23:48;;;;;;;10.93;6.42;;;;;;;;;;1771988;79;21111;-68
2022/12/02 19:26:14;;;;;;;11.95;6.33;;;;;;;;;;1789199;79;21107;-68
2022/12/02 19:28:41;;;;;;;13.62;6.60;;;;;;;;;;1784784;79;21102;-68
2022/12/02 19:31:07;;;;;;;9.70;5.78;;;;;;;;;;1747999;80;21107;-68
2022/12/02 19:33:33;;;;;;;12.28;6.12;;;;;;;;;;1758614;80;21070;-67
2022/12/02 19:36:00;;;;;;;13.22;6.42;;;;;;;;;;1762192;79;20989;-67
2022/12/02 19:38:26;;;;;;;14.43;6.35;;;;;;;;;;1761478;80;22248;-70
2022/12/02 19:40:53;;;;;;;11.73;6.00;;;;;;;;;;1745101;80;21044;-68
2022/12/02 19:43:19;;;;;;;9.50;5.80;;;;;;;;;;1775197;79;21072;-68
2022/12/02 19:45:45;;;;;;;14.18;6.15;;;;;;;;;;1744735;80;21058;-68
2022/12/02 19:48:12;;;;;;;9.70;6.20;;;;;;;;;;1781857;79;21078;-68
2022/12/02 19:50:38;;;;;;;12.60;5.62;;;;;;;;;;1782644;79;21016;-68